sensor_id;sensor_type;location;lat;lon;timestamp;P1;durP1;ratioP1;P2;durP2;ratioP2
39370;SDS011;25099;51.946;4.838;2022-08-21T00:00:08;4.60;;;4.13;;
39370;SDS011;25099;51.946;4.838;2022-08-21T00:02:36;5.70;;;3.88;;
39370;SDS011;25099;51.946;4.838;2022-08-21T00:05:02;6.40;;;3.70;;
39370;SDS011;25099;51.946;4.838;2022-08-21T00:07:28;3.90;;;2.95;;
39370;SDS011;25099;51.946;4.838;2022-08-21T00:09:54;12.98;;;3.65;;
39370;SDS011;25099;51.946;4.838;2022-08-21T00:12:20;4.07;;;2.92;;
39370;SDS011;25099;51.946;4.838;2022-08-21T00:14:46;5.47;;;3.40;;
39370;SDS011;25099;51.946;4.838;2022-08-21T00:17:12;6.40;;;3.30;;
39370;SDS011;25099;51.946;4.838;2022-08-21T00:19:37;4.72;;;3.10;;
39370;SDS011;25099;51.946;4.838;2022-08-21T00:22:03;3.38;;;3.00;;
39370;SDS011;25099;51.946;4.838;2022-08-21T00:24:29;6.72;;;3.70;;
39370;SDS011;25099;51.946;4.838;2022-08-21T00:26:54;5.22;;;3.30;;
39370;SDS011;25099;51.946;4.838;2022-08-21T00:29:20;6.70;;;3.17;;
39370;SDS011;25099;51.946;4.838;2022-08-21T00:31:46;6.93;;;3.53;;
39370;SDS011;25099;51.946;4.838;2022-08-21T00:34:12;5.70;;;3.10;;
39370;SDS011;25099;51.946;4.838;2022-08-21T00:36:38;5.95;;;3.08;;
39370;SDS011;25099;51.946;4.838;2022-08-21T00:39:04;4.82;;;3.15;;
39370;SDS011;25099;51.946;4.838;2022-08-21T00:41:31;5.80;;;3.15;;
39370;SDS011;25099;51.946;4.838;2022-08-21T00:43:58;4.43;;;3.40;;
39370;SDS011;25099;51.946;4.838;2022-08-21T00:46:23;5.40;;;3.10;;
39370;SDS011;25099;51.946;4.838;2022-08-21T00:48:49;3.75;;;3.25;;
39370;SDS011;25099;51.946;4.838;2022-08-21T00:51:17;7.18;;;3.17;;
39370;SDS011;25099;51.946;4.838;2022-08-21T00:53:51;3.20;;;2.90;;
39370;SDS011;25099;51.946;4.838;2022-08-21T00:56:21;8.52;;;3.42;;
39370;SDS011;25099;51.946;4.838;2022-08-21T00:58:48;3.88;;;3.45;;
39370;SDS011;25099;51.946;4.838;2022-08-21T01:01:15;4.07;;;2.97;;
39370;SDS011;25099;51.946;4.838;2022-08-21T01:03:41;3.92;;;3.17;;
39370;SDS011;25099;51.946;4.838;2022-08-21T01:06:07;6.47;;;3.95;;
39370;SDS011;25099;51.946;4.838;2022-08-21T01:08:34;9.50;;;3.92;;
39370;SDS011;25099;51.946;4.838;2022-08-21T01:11:00;6.85;;;3.70;;
39370;SDS011;25099;51.946;4.838;2022-08-21T01:13:27;8.90;;;3.25;;
39370;SDS011;25099;51.946;4.838;2022-08-21T01:15:58;5.00;;;3.67;;
39370;SDS011;25099;51.946;4.838;2022-08-21T01:18:26;3.80;;;3.15;;
39370;SDS011;25099;51.946;4.838;2022-08-21T01:21:00;3.63;;;3.22;;
39370;SDS011;25099;51.946;4.838;2022-08-21T01:23:26;7.28;;;3.80;;
39370;SDS011;25099;51.946;4.838;2022-08-21T01:25:51;7.15;;;3.85;;
39370;SDS011;25099;51.946;4.838;2022-08-21T01:28:17;6.65;;;3.42;;
39370;SDS011;25099;51.946;4.838;2022-08-21T01:30:44;5.72;;;3.60;;
39370;SDS011;25099;51.946;4.838;2022-08-21T01:33:10;6.85;;;3.40;;
39370;SDS011;25099;51.946;4.838;2022-08-21T01:35:36;7.90;;;3.88;;
39370;SDS011;25099;51.946;4.838;2022-08-21T01:38:03;5.38;;;3.35;;
39370;SDS011;25099;51.946;4.838;2022-08-21T01:40:29;4.55;;;3.78;;
39370;SDS011;25099;51.946;4.838;2022-08-21T01:42:54;3.80;;;3.22;;
39370;SDS011;25099;51.946;4.838;2022-08-21T01:45:20;4.72;;;3.42;;
39370;SDS011;25099;51.946;4.838;2022-08-21T01:47:46;5.38;;;3.42;;
39370;SDS011;25099;51.946;4.838;2022-08-21T01:50:13;7.07;;;3.95;;
39370;SDS011;25099;51.946;4.838;2022-08-21T01:52:40;8.88;;;4.18;;
39370;SDS011;25099;51.946;4.838;2022-08-21T01:55:07;7.60;;;4.03;;
39370;SDS011;25099;51.946;4.838;2022-08-21T01:57:34;6.13;;;4.10;;
39370;SDS011;25099;51.946;4.838;2022-08-21T02:00:00;7.65;;;3.33;;
39370;SDS011;25099;51.946;4.838;2022-08-21T02:02:26;4.60;;;3.80;;
39370;SDS011;25099;51.946;4.838;2022-08-21T02:04:51;6.60;;;3.75;;
39370;SDS011;25099;51.946;4.838;2022-08-21T02:07:17;6.70;;;4.18;;
39370;SDS011;25099;51.946;4.838;2022-08-21T02:09:43;10.13;;;4.10;;
39370;SDS011;25099;51.946;4.838;2022-08-21T02:12:10;7.63;;;4.03;;
39370;SDS011;25099;51.946;4.838;2022-08-21T02:14:36;8.85;;;5.25;;
39370;SDS011;25099;51.946;4.838;2022-08-21T02:17:02;7.25;;;3.97;;
39370;SDS011;25099;51.946;4.838;2022-08-21T02:19:30;7.47;;;4.82;;
39370;SDS011;25099;51.946;4.838;2022-08-21T02:21:56;10.02;;;4.60;;
39370;SDS011;25099;51.946;4.838;2022-08-21T02:24:21;6.32;;;4.88;;
39370;SDS011;25099;51.946;4.838;2022-08-21T02:26:47;7.82;;;4.20;;
39370;SDS011;25099;51.946;4.838;2022-08-21T02:29:13;5.95;;;4.40;;
39370;SDS011;25099;51.946;4.838;2022-08-21T02:31:38;6.78;;;3.75;;
39370;SDS011;25099;51.946;4.838;2022-08-21T02:34:04;7.03;;;3.95;;
39370;SDS011;25099;51.946;4.838;2022-08-21T02:36:29;4.95;;;4.00;;
39370;SDS011;25099;51.946;4.838;2022-08-21T02:38:55;5.88;;;3.88;;
39370;SDS011;25099;51.946;4.838;2022-08-21T02:41:21;5.90;;;3.78;;
39370;SDS011;25099;51.946;4.838;2022-08-21T02:43:47;5.38;;;4.20;;
39370;SDS011;25099;51.946;4.838;2022-08-21T02:46:14;4.00;;;3.17;;
39370;SDS011;25099;51.946;4.838;2022-08-21T02:48:40;6.55;;;4.03;;
39370;SDS011;25099;51.946;4.838;2022-08-21T02:51:10;6.22;;;4.88;;
39370;SDS011;25099;51.946;4.838;2022-08-21T02:53:42;6.38;;;3.70;;
39370;SDS011;25099;51.946;4.838;2022-08-21T02:56:10;6.57;;;4.47;;
39370;SDS011;25099;51.946;4.838;2022-08-21T02:58:42;9.57;;;4.63;;
39370;SDS011;25099;51.946;4.838;2022-08-21T03:01:09;7.05;;;3.67;;
39370;SDS011;25099;51.946;4.838;2022-08-21T03:03:37;10.18;;;3.85;;
39370;SDS011;25099;51.946;4.838;2022-08-21T03:06:04;16.23;;;4.18;;
39370;SDS011;25099;51.946;4.838;2022-08-21T03:08:31;4.22;;;3.83;;
39370;SDS011;25099;51.946;4.838;2022-08-21T03:10:56;8.15;;;4.20;;
39370;SDS011;25099;51.946;4.838;2022-08-21T03:13:25;13.38;;;5.20;;
39370;SDS011;25099;51.946;4.838;2022-08-21T03:15:52;5.65;;;3.63;;
39370;SDS011;25099;51.946;4.838;2022-08-21T03:18:18;6.78;;;3.40;;
39370;SDS011;25099;51.946;4.838;2022-08-21T03:20:43;8.25;;;4.40;;
39370;SDS011;25099;51.946;4.838;2022-08-21T03:23:10;11.20;;;4.10;;
39370;SDS011;25099;51.946;4.838;2022-08-21T03:25:36;11.30;;;4.35;;
39370;SDS011;25099;51.946;4.838;2022-08-21T03:28:03;7.80;;;4.28;;
39370;SDS011;25099;51.946;4.838;2022-08-21T03:30:30;8.35;;;4.10;;
39370;SDS011;25099;51.946;4.838;2022-08-21T03:32:56;10.55;;;3.83;;
39370;SDS011;25099;51.946;4.838;2022-08-21T03:35:25;9.07;;;4.55;;
39370;SDS011;25099;51.946;4.838;2022-08-21T03:37:52;7.80;;;4.28;;
39370;SDS011;25099;51.946;4.838;2022-08-21T03:40:19;7.70;;;4.47;;
39370;SDS011;25099;51.946;4.838;2022-08-21T03:42:45;7.22;;;4.80;;
39370;SDS011;25099;51.946;4.838;2022-08-21T03:45:12;8.55;;;4.88;;
39370;SDS011;25099;51.946;4.838;2022-08-21T03:47:38;9.20;;;4.15;;
39370;SDS011;25099;51.946;4.838;2022-08-21T03:50:15;11.25;;;4.60;;
39370;SDS011;25099;51.946;4.838;2022-08-21T03:52:42;9.13;;;4.30;;
39370;SDS011;25099;51.946;4.838;2022-08-21T03:55:07;6.60;;;4.82;;
39370;SDS011;25099;51.946;4.838;2022-08-21T03:57:33;8.73;;;5.15;;
39370;SDS011;25099;51.946;4.838;2022-08-21T03:59:58;10.20;;;4.40;;
39370;SDS011;25099;51.946;4.838;2022-08-21T04:02:24;12.70;;;5.20;;
39370;SDS011;25099;51.946;4.838;2022-08-21T04:04:50;7.22;;;4.90;;
39370;SDS011;25099;51.946;4.838;2022-08-21T04:07:15;8.60;;;5.25;;
39370;SDS011;25099;51.946;4.838;2022-08-21T04:09:42;8.18;;;4.72;;
39370;SDS011;25099;51.946;4.838;2022-08-21T04:12:09;16.77;;;6.45;;
39370;SDS011;25099;51.946;4.838;2022-08-21T04:14:35;11.40;;;5.60;;
39370;SDS011;25099;51.946;4.838;2022-08-21T04:17:00;14.05;;;5.57;;
39370;SDS011;25099;51.946;4.838;2022-08-21T04:19:26;9.77;;;5.10;;
39370;SDS011;25099;51.946;4.838;2022-08-21T04:21:51;9.00;;;5.40;;
39370;SDS011;25099;51.946;4.838;2022-08-21T04:24:17;8.65;;;4.75;;
39370;SDS011;25099;51.946;4.838;2022-08-21T04:26:44;9.07;;;6.00;;
39370;SDS011;25099;51.946;4.838;2022-08-21T04:29:09;9.88;;;5.65;;
39370;SDS011;25099;51.946;4.838;2022-08-21T04:31:36;6.40;;;4.80;;
39370;SDS011;25099;51.946;4.838;2022-08-21T04:34:02;12.52;;;6.05;;
39370;SDS011;25099;51.946;4.838;2022-08-21T04:36:30;10.35;;;5.45;;
39370;SDS011;25099;51.946;4.838;2022-08-21T04:38:57;6.47;;;5.20;;
39370;SDS011;25099;51.946;4.838;2022-08-21T04:41:23;9.80;;;6.07;;
39370;SDS011;25099;51.946;4.838;2022-08-21T04:43:49;16.15;;;5.97;;
39370;SDS011;25099;51.946;4.838;2022-08-21T04:46:14;11.20;;;5.95;;
39370;SDS011;25099;51.946;4.838;2022-08-21T04:48:40;14.18;;;5.95;;
39370;SDS011;25099;51.946;4.838;2022-08-21T04:51:07;8.73;;;5.55;;
39370;SDS011;25099;51.946;4.838;2022-08-21T04:53:47;13.15;;;6.28;;
39370;SDS011;25099;51.946;4.838;2022-08-21T04:56:20;9.98;;;5.65;;
39370;SDS011;25099;51.946;4.838;2022-08-21T04:58:48;9.82;;;5.72;;
39370;SDS011;25099;51.946;4.838;2022-08-21T05:01:18;10.88;;;5.97;;
39370;SDS011;25099;51.946;4.838;2022-08-21T05:03:46;8.27;;;5.75;;
39370;SDS011;25099;51.946;4.838;2022-08-21T05:06:14;7.50;;;5.57;;
39370;SDS011;25099;51.946;4.838;2022-08-21T05:08:41;7.00;;;5.25;;
39370;SDS011;25099;51.946;4.838;2022-08-21T05:11:10;11.70;;;5.68;;
39370;SDS011;25099;51.946;4.838;2022-08-21T05:13:36;10.38;;;5.15;;
39370;SDS011;25099;51.946;4.838;2022-08-21T05:16:02;8.57;;;5.10;;
39370;SDS011;25099;51.946;4.838;2022-08-21T05:18:28;7.57;;;5.43;;
39370;SDS011;25099;51.946;4.838;2022-08-21T05:20:54;11.10;;;5.10;;
39370;SDS011;25099;51.946;4.838;2022-08-21T05:23:19;12.13;;;5.93;;
39370;SDS011;25099;51.946;4.838;2022-08-21T05:25:45;14.07;;;5.85;;
39370;SDS011;25099;51.946;4.838;2022-08-21T05:28:11;10.55;;;5.40;;
39370;SDS011;25099;51.946;4.838;2022-08-21T05:30:37;13.15;;;5.65;;
39370;SDS011;25099;51.946;4.838;2022-08-21T05:33:03;9.02;;;5.03;;
39370;SDS011;25099;51.946;4.838;2022-08-21T05:35:31;14.40;;;6.05;;
39370;SDS011;25099;51.946;4.838;2022-08-21T05:37:57;12.00;;;5.70;;
39370;SDS011;25099;51.946;4.838;2022-08-21T05:40:30;10.82;;;5.40;;
39370;SDS011;25099;51.946;4.838;2022-08-21T05:42:56;11.48;;;5.25;;
39370;SDS011;25099;51.946;4.838;2022-08-21T05:45:22;8.23;;;5.25;;
39370;SDS011;25099;51.946;4.838;2022-08-21T05:47:49;10.50;;;5.07;;
39370;SDS011;25099;51.946;4.838;2022-08-21T05:50:15;10.95;;;5.07;;
39370;SDS011;25099;51.946;4.838;2022-08-21T05:52:43;10.80;;;5.57;;
39370;SDS011;25099;51.946;4.838;2022-08-21T05:55:09;9.63;;;5.28;;
39370;SDS011;25099;51.946;4.838;2022-08-21T05:57:34;8.52;;;5.30;;
39370;SDS011;25099;51.946;4.838;2022-08-21T06:00:00;11.75;;;5.40;;
39370;SDS011;25099;51.946;4.838;2022-08-21T06:02:25;16.52;;;5.75;;
39370;SDS011;25099;51.946;4.838;2022-08-21T06:04:51;10.30;;;5.05;;
39370;SDS011;25099;51.946;4.838;2022-08-21T06:07:16;12.18;;;4.85;;
39370;SDS011;25099;51.946;4.838;2022-08-21T06:09:42;7.25;;;4.90;;
39370;SDS011;25099;51.946;4.838;2022-08-21T06:12:11;10.93;;;5.78;;
39370;SDS011;25099;51.946;4.838;2022-08-21T06:14:38;12.67;;;4.87;;
39370;SDS011;25099;51.946;4.838;2022-08-21T06:17:06;12.02;;;5.07;;
39370;SDS011;25099;51.946;4.838;2022-08-21T06:19:34;10.55;;;4.78;;
39370;SDS011;25099;51.946;4.838;2022-08-21T06:22:00;19.33;;;5.75;;
39370;SDS011;25099;51.946;4.838;2022-08-21T06:24:26;12.18;;;5.38;;
39370;SDS011;25099;51.946;4.838;2022-08-21T06:26:52;12.63;;;4.53;;
39370;SDS011;25099;51.946;4.838;2022-08-21T06:29:18;10.15;;;5.03;;
39370;SDS011;25099;51.946;4.838;2022-08-21T06:31:45;10.98;;;4.72;;
39370;SDS011;25099;51.946;4.838;2022-08-21T06:34:11;17.92;;;5.22;;
39370;SDS011;25099;51.946;4.838;2022-08-21T06:36:37;12.77;;;4.55;;
39370;SDS011;25099;51.946;4.838;2022-08-21T06:39:03;16.55;;;4.82;;
39370;SDS011;25099;51.946;4.838;2022-08-21T06:41:29;12.18;;;4.97;;
39370;SDS011;25099;51.946;4.838;2022-08-21T06:43:56;9.93;;;4.60;;
39370;SDS011;25099;51.946;4.838;2022-08-21T06:46:25;14.60;;;5.22;;
39370;SDS011;25099;51.946;4.838;2022-08-21T06:48:54;14.15;;;5.38;;
39370;SDS011;25099;51.946;4.838;2022-08-21T06:51:21;13.82;;;5.32;;
39370;SDS011;25099;51.946;4.838;2022-08-21T06:53:47;14.90;;;5.10;;
39370;SDS011;25099;51.946;4.838;2022-08-21T06:56:14;10.07;;;5.30;;
39370;SDS011;25099;51.946;4.838;2022-08-21T06:58:40;12.15;;;4.78;;
39370;SDS011;25099;51.946;4.838;2022-08-21T07:01:06;19.55;;;6.10;;
39370;SDS011;25099;51.946;4.838;2022-08-21T07:03:33;11.10;;;4.40;;
39370;SDS011;25099;51.946;4.838;2022-08-21T07:06:01;16.55;;;5.03;;
39370;SDS011;25099;51.946;4.838;2022-08-21T07:08:28;9.55;;;4.20;;
39370;SDS011;25099;51.946;4.838;2022-08-21T07:10:54;13.65;;;5.03;;
39370;SDS011;25099;51.946;4.838;2022-08-21T07:13:21;7.78;;;4.40;;
39370;SDS011;25099;51.946;4.838;2022-08-21T07:15:47;13.43;;;4.95;;
39370;SDS011;25099;51.946;4.838;2022-08-21T07:18:13;22.80;;;5.32;;
39370;SDS011;25099;51.946;4.838;2022-08-21T07:20:39;12.02;;;4.90;;
39370;SDS011;25099;51.946;4.838;2022-08-21T07:23:06;8.27;;;4.80;;
39370;SDS011;25099;51.946;4.838;2022-08-21T07:25:35;9.07;;;4.22;;
39370;SDS011;25099;51.946;4.838;2022-08-21T07:28:01;15.27;;;5.10;;
39370;SDS011;25099;51.946;4.838;2022-08-21T07:30:27;12.15;;;5.05;;
39370;SDS011;25099;51.946;4.838;2022-08-21T07:32:53;13.48;;;4.97;;
39370;SDS011;25099;51.946;4.838;2022-08-21T07:35:20;15.40;;;4.70;;
39370;SDS011;25099;51.946;4.838;2022-08-21T07:37:46;13.30;;;5.50;;
39370;SDS011;25099;51.946;4.838;2022-08-21T07:40:12;13.30;;;5.30;;
39370;SDS011;25099;51.946;4.838;2022-08-21T07:42:42;9.48;;;4.47;;
39370;SDS011;25099;51.946;4.838;2022-08-21T07:47:35;13.75;;;5.40;;
39370;SDS011;25099;51.946;4.838;2022-08-21T07:50:00;15.02;;;4.97;;
39370;SDS011;25099;51.946;4.838;2022-08-21T07:52:26;16.10;;;4.82;;
39370;SDS011;25099;51.946;4.838;2022-08-21T07:54:51;9.55;;;4.28;;
39370;SDS011;25099;51.946;4.838;2022-08-21T07:57:18;14.43;;;5.45;;
39370;SDS011;25099;51.946;4.838;2022-08-21T07:59:43;11.25;;;5.05;;
39370;SDS011;25099;51.946;4.838;2022-08-21T08:02:09;12.07;;;4.85;;
39370;SDS011;25099;51.946;4.838;2022-08-21T08:04:34;10.07;;;5.53;;
39370;SDS011;25099;51.946;4.838;2022-08-21T08:07:00;14.50;;;4.97;;
39370;SDS011;25099;51.946;4.838;2022-08-21T08:09:25;17.88;;;5.43;;
39370;SDS011;25099;51.946;4.838;2022-08-21T08:11:51;9.90;;;4.20;;
39370;SDS011;25099;51.946;4.838;2022-08-21T08:14:17;15.90;;;4.30;;
39370;SDS011;25099;51.946;4.838;2022-08-21T08:16:42;15.45;;;4.03;;
39370;SDS011;25099;51.946;4.838;2022-08-21T08:19:09;15.50;;;3.90;;
39370;SDS011;25099;51.946;4.838;2022-08-21T08:21:34;10.38;;;4.15;;
39370;SDS011;25099;51.946;4.838;2022-08-21T08:24:02;13.13;;;4.50;;
39370;SDS011;25099;51.946;4.838;2022-08-21T08:26:28;7.97;;;3.25;;
39370;SDS011;25099;51.946;4.838;2022-08-21T08:28:53;9.63;;;4.18;;
39370;SDS011;25099;51.946;4.838;2022-08-21T08:31:19;12.10;;;3.85;;
39370;SDS011;25099;51.946;4.838;2022-08-21T08:33:45;11.02;;;3.58;;
39370;SDS011;25099;51.946;4.838;2022-08-21T08:36:15;11.10;;;3.72;;
39370;SDS011;25099;51.946;4.838;2022-08-21T08:38:42;12.27;;;3.28;;
39370;SDS011;25099;51.946;4.838;2022-08-21T08:41:15;13.30;;;3.90;;
39370;SDS011;25099;51.946;4.838;2022-08-21T08:43:46;12.98;;;4.03;;
39370;SDS011;25099;51.946;4.838;2022-08-21T08:46:56;10.10;;;3.37;;
39370;SDS011;25099;51.946;4.838;2022-08-21T08:51:57;9.88;;;3.22;;
39370;SDS011;25099;51.946;4.838;2022-08-21T08:54:39;7.53;;;2.95;;
39370;SDS011;25099;51.946;4.838;2022-08-21T08:57:14;10.38;;;3.05;;
39370;SDS011;25099;51.946;4.838;2022-08-21T08:59:49;9.30;;;2.95;;
39370;SDS011;25099;51.946;4.838;2022-08-21T09:02:18;8.60;;;3.17;;
39370;SDS011;25099;51.946;4.838;2022-08-21T09:04:45;7.65;;;2.72;;
39370;SDS011;25099;51.946;4.838;2022-08-21T09:07:18;11.27;;;3.70;;
39370;SDS011;25099;51.946;4.838;2022-08-21T09:15:42;14.10;;;3.75;;
39370;SDS011;25099;51.946;4.838;2022-08-21T09:23:54;8.60;;;2.95;;
39370;SDS011;25099;51.946;4.838;2022-08-21T09:26:47;7.32;;;2.40;;
39370;SDS011;25099;51.946;4.838;2022-08-21T09:29:27;11.05;;;2.15;;
39370;SDS011;25099;51.946;4.838;2022-08-21T09:31:56;16.50;;;3.20;;
39370;SDS011;25099;51.946;4.838;2022-08-21T09:34:29;6.68;;;2.25;;
39370;SDS011;25099;51.946;4.838;2022-08-21T09:36:56;8.68;;;2.70;;
39370;SDS011;25099;51.946;4.838;2022-08-21T09:39:24;10.98;;;2.50;;
39370;SDS011;25099;51.946;4.838;2022-08-21T09:42:01;3.75;;;1.77;;
39370;SDS011;25099;51.946;4.838;2022-08-21T09:44:33;9.13;;;2.17;;
39370;SDS011;25099;51.946;4.838;2022-08-21T09:47:05;10.23;;;2.05;;
39370;SDS011;25099;51.946;4.838;2022-08-21T09:49:33;10.05;;;3.20;;
39370;SDS011;25099;51.946;4.838;2022-08-21T09:52:01;12.40;;;2.53;;
39370;SDS011;25099;51.946;4.838;2022-08-21T09:54:35;7.00;;;1.98;;
39370;SDS011;25099;51.946;4.838;2022-08-21T09:59:54;7.82;;;1.75;;
39370;SDS011;25099;51.946;4.838;2022-08-21T10:05:02;6.60;;;1.95;;
39370;SDS011;25099;51.946;4.838;2022-08-21T10:07:37;8.65;;;2.13;;
39370;SDS011;25099;51.946;4.838;2022-08-21T10:23:42;8.02;;;1.73;;
39370;SDS011;25099;51.946;4.838;2022-08-21T10:34:41;3.95;;;1.80;;
39370;SDS011;25099;51.946;4.838;2022-08-21T10:45:30;6.15;;;1.95;;
39370;SDS011;25099;51.946;4.838;2022-08-21T10:48:24;4.22;;;1.73;;
39370;SDS011;25099;51.946;4.838;2022-08-21T10:51:10;5.07;;;1.58;;
39370;SDS011;25099;51.946;4.838;2022-08-21T10:54:00;5.82;;;2.00;;
39370;SDS011;25099;51.946;4.838;2022-08-21T10:56:43;7.05;;;1.95;;
39370;SDS011;25099;51.946;4.838;2022-08-21T11:04:24;4.45;;;1.40;;
39370;SDS011;25099;51.946;4.838;2022-08-21T11:07:11;3.30;;;1.55;;
39370;SDS011;25099;51.946;4.838;2022-08-21T11:09:45;5.53;;;2.20;;
39370;SDS011;25099;51.946;4.838;2022-08-21T11:15:24;5.30;;;1.60;;
39370;SDS011;25099;51.946;4.838;2022-08-21T11:20:29;7.20;;;2.05;;
39370;SDS011;25099;51.946;4.838;2022-08-21T11:23:05;5.20;;;1.58;;
39370;SDS011;25099;51.946;4.838;2022-08-21T11:26:19;6.82;;;1.75;;
39370;SDS011;25099;51.946;4.838;2022-08-21T11:28:36;2.50;;;1.13;;
39370;SDS011;25099;51.946;4.838;2022-08-21T11:33:47;5.15;;;1.80;;
39370;SDS011;25099;51.946;4.838;2022-08-21T11:39:12;6.35;;;2.05;;
39370;SDS011;25099;51.946;4.838;2022-08-21T11:42:02;4.80;;;1.40;;
39370;SDS011;25099;51.946;4.838;2022-08-21T11:44:37;3.38;;;1.75;;
39370;SDS011;25099;51.946;4.838;2022-08-21T11:50:18;7.63;;;2.17;;
39370;SDS011;25099;51.946;4.838;2022-08-21T11:52:49;7.32;;;1.58;;
39370;SDS011;25099;51.946;4.838;2022-08-21T11:55:30;7.13;;;1.92;;
39370;SDS011;25099;51.946;4.838;2022-08-21T12:01:08;4.45;;;1.83;;
39370;SDS011;25099;51.946;4.838;2022-08-21T12:06:07;5.25;;;1.70;;
39370;SDS011;25099;51.946;4.838;2022-08-21T12:08:38;5.35;;;1.52;;
39370;SDS011;25099;51.946;4.838;2022-08-21T12:13:53;5.85;;;1.92;;
39370;SDS011;25099;51.946;4.838;2022-08-21T12:16:32;7.00;;;1.85;;
39370;SDS011;25099;51.946;4.838;2022-08-21T12:24:34;5.03;;;1.58;;
39370;SDS011;25099;51.946;4.838;2022-08-21T12:29:52;4.00;;;1.90;;
39370;SDS011;25099;51.946;4.838;2022-08-21T12:35:15;4.85;;;1.70;;
39370;SDS011;25099;51.946;4.838;2022-08-21T12:37:51;5.95;;;1.95;;
39370;SDS011;25099;51.946;4.838;2022-08-21T12:40:41;7.00;;;1.90;;
39370;SDS011;25099;51.946;4.838;2022-08-21T12:43:13;4.70;;;1.80;;
39370;SDS011;25099;51.946;4.838;2022-08-21T12:45:45;7.40;;;1.80;;
39370;SDS011;25099;51.946;4.838;2022-08-21T12:48:18;4.32;;;1.80;;
39370;SDS011;25099;51.946;4.838;2022-08-21T12:50:52;3.63;;;1.60;;
39370;SDS011;25099;51.946;4.838;2022-08-21T12:53:32;4.00;;;1.42;;
39370;SDS011;25099;51.946;4.838;2022-08-21T12:56:12;4.75;;;1.38;;
39370;SDS011;25099;51.946;4.838;2022-08-21T12:58:41;6.20;;;1.42;;
39370;SDS011;25099;51.946;4.838;2022-08-21T13:01:19;4.97;;;2.03;;
39370;SDS011;25099;51.946;4.838;2022-08-21T13:03:52;5.90;;;2.03;;
39370;SDS011;25099;51.946;4.838;2022-08-21T13:06:21;6.55;;;1.70;;
39370;SDS011;25099;51.946;4.838;2022-08-21T13:08:49;2.10;;;1.48;;
39370;SDS011;25099;51.946;4.838;2022-08-21T13:11:22;6.82;;;1.90;;
39370;SDS011;25099;51.946;4.838;2022-08-21T13:13:49;5.55;;;1.60;;
39370;SDS011;25099;51.946;4.838;2022-08-21T13:16:20;4.88;;;1.50;;
39370;SDS011;25099;51.946;4.838;2022-08-21T13:18:57;7.68;;;1.50;;
39370;SDS011;25099;51.946;4.838;2022-08-21T13:21:33;6.75;;;1.60;;
39370;SDS011;25099;51.946;4.838;2022-08-21T13:24:08;3.15;;;1.70;;
39370;SDS011;25099;51.946;4.838;2022-08-21T13:26:35;5.57;;;2.00;;
39370;SDS011;25099;51.946;4.838;2022-08-21T13:29:06;5.55;;;2.22;;
39370;SDS011;25099;51.946;4.838;2022-08-21T13:31:36;4.43;;;2.05;;
39370;SDS011;25099;51.946;4.838;2022-08-21T13:34:04;3.65;;;1.58;;
39370;SDS011;25099;51.946;4.838;2022-08-21T13:36:31;6.18;;;2.00;;
39370;SDS011;25099;51.946;4.838;2022-08-21T13:39:01;3.75;;;1.50;;
39370;SDS011;25099;51.946;4.838;2022-08-21T13:41:37;4.07;;;1.77;;
39370;SDS011;25099;51.946;4.838;2022-08-21T13:44:51;3.40;;;1.60;;
39370;SDS011;25099;51.946;4.838;2022-08-21T13:47:02;6.50;;;1.80;;
39370;SDS011;25099;51.946;4.838;2022-08-21T13:49:30;2.92;;;1.45;;
39370;SDS011;25099;51.946;4.838;2022-08-21T13:52:02;7.50;;;2.55;;
39370;SDS011;25099;51.946;4.838;2022-08-21T13:54:33;2.47;;;1.50;;
39370;SDS011;25099;51.946;4.838;2022-08-21T13:57:01;5.00;;;1.63;;
39370;SDS011;25099;51.946;4.838;2022-08-21T13:59:28;6.88;;;1.88;;
39370;SDS011;25099;51.946;4.838;2022-08-21T14:02:01;5.55;;;1.70;;
39370;SDS011;25099;51.946;4.838;2022-08-21T14:04:39;4.88;;;1.45;;
39370;SDS011;25099;51.946;4.838;2022-08-21T14:07:33;4.45;;;2.15;;
39370;SDS011;25099;51.946;4.838;2022-08-21T14:10:05;3.70;;;1.55;;
39370;SDS011;25099;51.946;4.838;2022-08-21T14:12:38;10.30;;;1.95;;
39370;SDS011;25099;51.946;4.838;2022-08-21T14:15:08;4.03;;;1.65;;
39370;SDS011;25099;51.946;4.838;2022-08-21T14:17:38;2.92;;;1.70;;
39370;SDS011;25099;51.946;4.838;2022-08-21T14:20:11;5.22;;;1.67;;
39370;SDS011;25099;51.946;4.838;2022-08-21T14:22:50;5.97;;;1.55;;
39370;SDS011;25099;51.946;4.838;2022-08-21T14:27:55;2.30;;;1.10;;
39370;SDS011;25099;51.946;4.838;2022-08-21T14:32:58;4.07;;;1.27;;
39370;SDS011;25099;51.946;4.838;2022-08-21T14:35:24;3.28;;;1.38;;
39370;SDS011;25099;51.946;4.838;2022-08-21T14:37:50;4.22;;;1.35;;
39370;SDS011;25099;51.946;4.838;2022-08-21T14:40:17;4.15;;;1.23;;
39370;SDS011;25099;51.946;4.838;2022-08-21T14:42:44;5.07;;;2.10;;
39370;SDS011;25099;51.946;4.838;2022-08-21T14:45:15;3.35;;;1.30;;
39370;SDS011;25099;51.946;4.838;2022-08-21T14:47:42;4.13;;;1.20;;
39370;SDS011;25099;51.946;4.838;2022-08-21T14:50:08;3.42;;;1.42;;
39370;SDS011;25099;51.946;4.838;2022-08-21T14:52:35;4.82;;;1.85;;
39370;SDS011;25099;51.946;4.838;2022-08-21T14:55:01;7.70;;;1.83;;
39370;SDS011;25099;51.946;4.838;2022-08-21T14:57:27;9.88;;;1.40;;
39370;SDS011;25099;51.946;4.838;2022-08-21T14:59:56;3.97;;;1.42;;
39370;SDS011;25099;51.946;4.838;2022-08-21T15:02:22;4.53;;;1.48;;
39370;SDS011;25099;51.946;4.838;2022-08-21T15:04:47;6.82;;;1.80;;
39370;SDS011;25099;51.946;4.838;2022-08-21T15:07:13;5.80;;;1.30;;
39370;SDS011;25099;51.946;4.838;2022-08-21T15:09:38;4.75;;;1.55;;
39370;SDS011;25099;51.946;4.838;2022-08-21T15:12:04;4.43;;;1.25;;
39370;SDS011;25099;51.946;4.838;2022-08-21T15:14:32;3.75;;;1.20;;
39370;SDS011;25099;51.946;4.838;2022-08-21T15:17:00;4.25;;;1.50;;
39370;SDS011;25099;51.946;4.838;2022-08-21T15:19:26;3.03;;;1.55;;
39370;SDS011;25099;51.946;4.838;2022-08-21T15:21:52;5.43;;;1.58;;
39370;SDS011;25099;51.946;4.838;2022-08-21T15:24:18;6.05;;;1.60;;
39370;SDS011;25099;51.946;4.838;2022-08-21T15:26:43;2.75;;;1.20;;
39370;SDS011;25099;51.946;4.838;2022-08-21T15:29:10;3.33;;;1.33;;
39370;SDS011;25099;51.946;4.838;2022-08-21T15:31:35;3.65;;;1.75;;
39370;SDS011;25099;51.946;4.838;2022-08-21T15:34:01;5.30;;;1.58;;
39370;SDS011;25099;51.946;4.838;2022-08-21T15:36:27;3.63;;;1.40;;
39370;SDS011;25099;51.946;4.838;2022-08-21T15:38:53;5.57;;;1.65;;
39370;SDS011;25099;51.946;4.838;2022-08-21T15:41:18;4.55;;;1.48;;
39370;SDS011;25099;51.946;4.838;2022-08-21T15:43:47;4.80;;;1.95;;
39370;SDS011;25099;51.946;4.838;2022-08-21T15:46:15;4.47;;;1.63;;
39370;SDS011;25099;51.946;4.838;2022-08-21T15:48:43;7.78;;;1.77;;
39370;SDS011;25099;51.946;4.838;2022-08-21T15:51:10;4.00;;;1.90;;
39370;SDS011;25099;51.946;4.838;2022-08-21T15:53:37;4.95;;;2.17;;
39370;SDS011;25099;51.946;4.838;2022-08-21T15:56:06;5.75;;;1.73;;
39370;SDS011;25099;51.946;4.838;2022-08-21T15:58:38;3.20;;;1.60;;
39370;SDS011;25099;51.946;4.838;2022-08-21T16:01:03;7.38;;;2.10;;
39370;SDS011;25099;51.946;4.838;2022-08-21T16:03:29;7.10;;;2.40;;
39370;SDS011;25099;51.946;4.838;2022-08-21T16:05:55;6.35;;;2.17;;
39370;SDS011;25099;51.946;4.838;2022-08-21T16:08:22;6.43;;;1.63;;
39370;SDS011;25099;51.946;4.838;2022-08-21T16:10:49;10.13;;;2.45;;
39370;SDS011;25099;51.946;4.838;2022-08-21T16:13:18;6.43;;;1.95;;
39370;SDS011;25099;51.946;4.838;2022-08-21T16:15:48;5.50;;;2.42;;
39370;SDS011;25099;51.946;4.838;2022-08-21T16:18:14;6.55;;;1.73;;
39370;SDS011;25099;51.946;4.838;2022-08-21T16:20:40;4.65;;;1.73;;
39370;SDS011;25099;51.946;4.838;2022-08-21T16:23:06;7.60;;;1.80;;
39370;SDS011;25099;51.946;4.838;2022-08-21T16:25:34;8.52;;;2.88;;
39370;SDS011;25099;51.946;4.838;2022-08-21T16:30:28;8.48;;;2.03;;